Time;durP1;ratioP1;P1;durP2;ratioP2;P2;SDS_P1;SDS_P2;PMS_P1;PMS_P2;Temp;Humidity;BMP_temperature;BMP_pressure;BME280_temperature;BME280_humidity;BME280_pressure;Samples;Min_cycle;Max_cycle;Signal;HPM_P1;HPM_P2
2022/08/01 00:02:14;;;;;;;6.30;3.30;;;;;;;;;;4956060;29;20242;-74
2022/08/01 00:04:41;;;;;;;4.00;3.20;;;;;;;;;;4956157;28;20675;-74
2022/08/01 00:07:08;;;;;;;6.65;3.22;;;;;;;;;;4956184;29;20290;-74
2022/08/01 00:09:37;;;;;;;5.55;3.45;;;;;;;;;;4956318;29;20254;-75
2022/08/01 00:12:05;;;;;;;6.35;2.88;;;;;;;;;;4955575;29;20333;-75
2022/08/01 00:14:32;;;;;;;7.03;3.15;;;;;;;;;;4956056;29;20226;-75
2022/08/01 00:16:59;;;;;;;5.68;3.20;;;;;;;;;;4956137;29;20294;-74
2022/08/01 00:19:26;;;;;;;6.60;3.17;;;;;;;;;;4955861;28;20211;-75
2022/08/01 00:21:53;;;;;;;5.03;2.90;;;;;;;;;;4956069;29;20302;-75
2022/08/01 00:24:20;;;;;;;3.83;2.75;;;;;;;;;;4955926;29;20245;-75
2022/08/01 00:26:49;;;;;;;6.28;2.88;;;;;;;;;;4955718;29;20242;-75
2022/08/01 00:29:17;;;;;;;6.82;2.78;;;;;;;;;;4955700;29;20295;-75
2022/08/01 00:31:44;;;;;;;5.18;2.78;;;;;;;;;;4955708;29;20235;-75
2022/08/01 00:34:11;;;;;;;3.55;2.63;;;;;;;;;;4955816;29;20257;-74
2022/08/01 00:36:38;;;;;;;4.78;2.85;;;;;;;;;;4955693;29;20265;-74
2022/08/01 00:39:05;;;;;;;4.85;2.55;;;;;;;;;;4955475;28;20262;-74
2022/08/01 00:41:33;;;;;;;4.65;2.80;;;;;;;;;;4955214;29;20617;-74
2022/08/01 00:44:03;;;;;;;3.80;2.40;;;;;;;;;;4955673;29;20234;-74
2022/08/01 00:46:30;;;;;;;4.53;2.90;;;;;;;;;;4955592;29;20290;-74
2022/08/01 00:48:58;;;;;;;4.10;2.60;;;;;;;;;;4955602;29;20293;-74
2022/08/01 00:51:26;;;;;;;4.57;3.17;;;;;;;;;;4955298;29;20295;-74
2022/08/01 00:53:54;;;;;;;4.82;2.75;;;;;;;;;;4955390;29;20214;-74
2022/08/01 00:56:21;;;;;;;4.60;2.80;;;;;;;;;;4954891;29;20750;-74
2022/08/01 00:58:49;;;;;;;6.47;2.75;;;;;;;;;;4937598;28;20227;-74
2022/08/01 01:01:20;;;;;;;4.55;2.63;;;;;;;;;;4955026;29;20749;-74
2022/08/01 01:03:47;;;;;;;5.80;2.80;;;;;;;;;;4955242;29;20671;-74
2022/08/01 01:06:25;;;;;;;6.15;3.20;;;;;;;;;;4955099;29;20285;-74
2022/08/01 01:08:56;;;;;;;5.15;3.00;;;;;;;;;;4954051;28;20290;-74
2022/08/01 01:11:27;;;;;;;3.58;2.60;;;;;;;;;;4946140;28;20277;-74
2022/08/01 01:13:59;;;;;;;6.57;3.28;;;;;;;;;;4955222;29;20294;-75
2022/08/01 01:16:28;;;;;;;6.57;2.90;;;;;;;;;;4954970;29;20806;-74
2022/08/01 01:18:57;;;;;;;3.65;2.70;;;;;;;;;;4954903;29;20262;-74
2022/08/01 01:21:41;;;;;;;5.07;2.58;;;;;;;;;;4954965;29;20242;-74
2022/08/01 01:24:14;;;;;;;5.78;2.95;;;;;;;;;;4954652;29;20199;-74
2022/08/01 01:26:45;;;;;;;5.38;2.97;;;;;;;;;;4954940;29;20290;-74
2022/08/01 01:29:16;;;;;;;5.18;2.95;;;;;;;;;;4954938;29;20231;-74
2022/08/01 01:31:46;;;;;;;4.15;2.92;;;;;;;;;;4955085;29;20274;-74
2022/08/01 01:34:14;;;;;;;4.18;2.50;;;;;;;;;;4954895;29;20241;-74
2022/08/01 01:36:42;;;;;;;6.00;3.00;;;;;;;;;;4954572;29;20227;-74
2022/08/01 01:39:09;;;;;;;4.00;2.45;;;;;;;;;;4954375;29;20695;-74
2022/08/01 01:41:38;;;;;;;5.80;2.90;;;;;;;;;;4954349;29;20249;-74
2022/08/01 01:44:05;;;;;;;5.68;2.80;;;;;;;;;;4954783;29;20203;-74
2022/08/01 01:46:34;;;;;;;4.78;2.45;;;;;;;;;;4954803;28;20226;-74
2022/08/01 01:49:03;;;;;;;4.43;2.60;;;;;;;;;;4954682;29;20237;-74
2022/08/01 01:51:31;;;;;;;5.53;2.97;;;;;;;;;;4954333;29;20225;-74
2022/08/01 01:53:59;;;;;;;4.47;2.33;;;;;;;;;;4954459;29;20299;-74
2022/08/01 01:56:28;;;;;;;5.55;2.70;;;;;;;;;;4954406;28;20270;-74
2022/08/01 01:58:56;;;;;;;4.13;2.60;;;;;;;;;;4954246;29;20254;-74
2022/08/01 02:01:25;;;;;;;3.85;2.28;;;;;;;;;;4937960;29;20628;-74
2022/08/01 02:03:54;;;;;;;3.95;2.13;;;;;;;;;;4935433;29;20246;-74
2022/08/01 02:06:22;;;;;;;6.40;2.27;;;;;;;;;;4935238;29;20684;-74
2022/08/01 02:08:49;;;;;;;4.05;2.63;;;;;;;;;;4935151;29;20275;-74
2022/08/01 02:11:20;;;;;;;6.47;2.65;;;;;;;;;;4935344;29;20266;-74
2022/08/01 02:13:49;;;;;;;4.93;2.28;;;;;;;;;;4935287;29;20207;-74
2022/08/01 02:16:18;;;;;;;3.33;2.22;;;;;;;;;;4935264;29;20263;-74
2022/08/01 02:18:45;;;;;;;3.25;1.98;;;;;;;;;;4935196;29;20208;-74
2022/08/01 02:21:17;;;;;;;3.08;2.10;;;;;;;;;;4935089;29;20598;-74
2022/08/01 02:23:45;;;;;;;3.95;1.95;;;;;;;;;;4937067;29;20204;-74
2022/08/01 02:26:15;;;;;;;3.83;1.87;;;;;;;;;;4939066;29;20227;-74
2022/08/01 02:28:44;;;;;;;3.33;2.07;;;;;;;;;;4938881;29;20282;-74
2022/08/01 02:31:14;;;;;;;4.37;2.10;;;;;;;;;;4938914;29;20235;-74
2022/08/01 02:33:44;;;;;;;3.80;2.05;;;;;;;;;;4938673;29;20546;-74
2022/08/01 02:36:13;;;;;;;5.82;1.95;;;;;;;;;;4938278;29;20688;-74
2022/08/01 02:38:43;;;;;;;4.03;2.00;;;;;;;;;;4938896;29;20315;-74
2022/08/01 02:41:10;;;;;;;2.70;1.80;;;;;;;;;;4938551;29;20208;-74
2022/08/01 02:43:39;;;;;;;3.08;1.70;;;;;;;;;;4938517;29;20302;-75
2022/08/01 02:46:09;;;;;;;4.40;1.90;;;;;;;;;;4938432;29;20211;-74
2022/08/01 02:48:38;;;;;;;2.80;1.95;;;;;;;;;;4938973;29;20294;-74
2022/08/01 02:51:07;;;;;;;2.97;1.80;;;;;;;;;;4938261;29;20250;-74
2022/08/01 02:53:36;;;;;;;3.03;1.63;;;;;;;;;;4938515;29;20246;-74
2022/08/01 02:56:06;;;;;;;3.97;1.60;;;;;;;;;;4938139;29;20224;-74
2022/08/01 02:58:33;;;;;;;2.85;1.60;;;;;;;;;;4938484;29;20756;-74
2022/08/01 03:01:01;;;;;;;2.78;1.70;;;;;;;;;;4969370;28;20325;-74
2022/08/01 03:03:29;;;;;;;3.08;1.60;;;;;;;;;;4977168;28;20233;-74
2022/08/01 03:05:56;;;;;;;3.08;1.90;;;;;;;;;;4976445;28;20741;-74
2022/08/01 03:08:24;;;;;;;2.67;1.60;;;;;;;;;;4976944;28;20289;-74
2022/08/01 03:10:53;;;;;;;3.17;1.70;;;;;;;;;;4976510;28;20289;-74
2022/08/01 03:13:23;;;;;;;1.63;1.30;;;;;;;;;;4976660;28;20289;-74
2022/08/01 03:15:51;;;;;;;2.35;1.40;;;;;;;;;;4976346;28;20226;-74
2022/08/01 03:18:18;;;;;;;2.42;1.40;;;;;;;;;;4976391;28;20293;-74
2022/08/01 03:20:47;;;;;;;1.98;1.50;;;;;;;;;;4976027;28;20699;-74
2022/08/01 03:23:15;;;;;;;2.38;1.15;;;;;;;;;;4976553;28;20545;-74
2022/08/01 03:25:43;;;;;;;1.55;1.10;;;;;;;;;;4976461;28;20233;-74
2022/08/01 03:28:13;;;;;;;2.03;1.30;;;;;;;;;;4976246;28;20285;-74
2022/08/01 03:30:43;;;;;;;2.30;1.40;;;;;;;;;;4976333;28;20294;-74
2022/08/01 03:33:11;;;;;;;3.13;1.33;;;;;;;;;;4976301;28;20293;-74
2022/08/01 03:35:41;;;;;;;1.75;1.30;;;;;;;;;;4975003;28;20484;-74
2022/08/01 03:38:10;;;;;;;1.50;1.10;;;;;;;;;;4976316;28;20241;-74
2022/08/01 03:40:39;;;;;;;1.67;1.20;;;;;;;;;;4976052;28;20207;-74
2022/08/01 03:43:07;;;;;;;1.90;0.93;;;;;;;;;;4976293;28;20230;-74
2022/08/01 03:45:37;;;;;;;1.35;1.17;;;;;;;;;;4976225;28;20202;-74
2022/08/01 03:48:08;;;;;;;1.48;1.10;;;;;;;;;;4975946;28;20202;-75
2022/08/01 03:50:35;;;;;;;2.55;1.20;;;;;;;;;;4975945;28;20234;-74
2022/08/01 03:53:04;;;;;;;1.40;1.10;;;;;;;;;;4975928;28;20725;-75
2022/08/01 03:55:32;;;;;;;1.42;1.08;;;;;;;;;;4975738;28;20342;-75
2022/08/01 03:57:59;;;;;;;1.52;1.13;;;;;;;;;;4975631;28;20250;-74
2022/08/01 04:00:27;;;;;;;1.95;1.27;;;;;;;;;;4975677;28;20325;-74
2022/08/01 04:02:55;;;;;;;1.55;1.20;;;;;;;;;;4975485;28;20681;-74
2022/08/01 04:05:25;;;;;;;1.50;1.27;;;;;;;;;;4975525;28;20234;-74
2022/08/01 04:07:55;;;;;;;1.33;1.10;;;;;;;;;;4975484;28;20207;-74
2022/08/01 04:10:23;;;;;;;1.63;1.20;;;;;;;;;;4975949;28;20202;-74
2022/08/01 04:12:50;;;;;;;3.53;1.40;;;;;;;;;;4975703;28;20213;-74
2022/08/01 04:15:17;;;;;;;1.20;1.10;;;;;;;;;;4975636;28;20289;-74
2022/08/01 04:17:45;;;;;;;1.45;0.93;;;;;;;;;;4975136;28;20325;-74
2022/08/01 04:20:13;;;;;;;1.40;1.10;;;;;;;;;;4975168;28;20233;-74
2022/08/01 04:22:42;;;;;;;1.40;1.08;;;;;;;;;;4975539;28;20595;-74
2022/08/01 04:25:11;;;;;;;1.33;0.90;;;;;;;;;;4975137;28;20293;-74
2022/08/01 04:27:40;;;;;;;1.37;0.90;;;;;;;;;;4975339;28;20952;-74
2022/08/01 04:30:08;;;;;;;0.90;0.77;;;;;;;;;;4975378;28;20249;-74
2022/08/01 04:32:37;;;;;;;1.10;0.80;;;;;;;;;;4974844;28;20202;-74
2022/08/01 04:35:06;;;;;;;1.33;1.00;;;;;;;;;;4975395;28;20244;-74
2022/08/01 04:37:36;;;;;;;1.83;0.80;;;;;;;;;;4974631;28;20265;-74
2022/08/01 04:40:06;;;;;;;2.13;0.90;;;;;;;;;;4975211;28;20202;-74
2022/08/01 04:42:33;;;;;;;2.23;0.83;;;;;;;;;;4974771;28;20666;-74
2022/08/01 04:45:00;;;;;;;2.23;0.97;;;;;;;;;;4974700;28;20654;-74
2022/08/01 04:47:28;;;;;;;0.67;0.67;;;;;;;;;;4973594;28;20290;-74
2022/08/01 04:49:56;;;;;;;1.90;0.80;;;;;;;;;;4974921;28;20289;-74
2022/08/01 04:52:24;;;;;;;0.93;0.83;;;;;;;;;;4974493;28;20198;-74
2022/08/01 04:54:51;;;;;;;1.00;0.80;;;;;;;;;;4974910;28;20202;-74
2022/08/01 04:57:20;;;;;;;1.40;0.93;;;;;;;;;;4974577;28;20717;-74
2022/08/01 04:59:49;;;;;;;1.10;0.93;;;;;;;;;;4965733;28;20653;-74
2022/08/01 05:02:17;;;;;;;1.60;1.03;;;;;;;;;;4955232;29;20226;-74
2022/08/01 05:04:45;;;;;;;1.00;0.90;;;;;;;;;;4955377;29;20251;-74
2022/08/01 05:07:13;;;;;;;1.17;1.07;;;;;;;;;;4955091;29;20258;-74
2022/08/01 05:09:41;;;;;;;1.73;0.90;;;;;;;;;;4955111;29;20587;-74
2022/08/01 05:12:10;;;;;;;1.93;1.10;;;;;;;;;;4955160;29;20203;-74
2022/08/01 05:14:39;;;;;;;1.10;0.90;;;;;;;;;;4955231;29;20225;-74
2022/08/01 05:17:07;;;;;;;1.50;1.10;;;;;;;;;;4954988;29;20232;-74
2022/08/01 05:19:35;;;;;;;1.53;1.30;;;;;;;;;;4954839;29;20231;-74
2022/08/01 05:22:04;;;;;;;2.00;1.10;;;;;;;;;;4955033;29;20282;-74
2022/08/01 05:24:32;;;;;;;1.97;1.30;;;;;;;;;;4955128;29;20203;-74
2022/08/01 05:26:59;;;;;;;2.40;1.27;;;;;;;;;;4954923;29;20278;-74
2022/08/01 05:29:27;;;;;;;1.50;1.20;;;;;;;;;;4955217;29;20231;-74
2022/08/01 05:31:56;;;;;;;3.77;1.30;;;;;;;;;;4954715;29;20246;-74
2022/08/01 05:34:23;;;;;;;2.57;1.50;;;;;;;;;;4954749;29;20678;-74
2022/08/01 05:36:51;;;;;;;1.83;1.20;;;;;;;;;;4954470;29;20319;-74
2022/08/01 05:39:18;;;;;;;1.85;1.20;;;;;;;;;;4954892;29;20274;-74
2022/08/01 05:41:45;;;;;;;1.20;1.10;;;;;;;;;;4954764;29;20294;-74
2022/08/01 05:44:12;;;;;;;1.20;1.10;;;;;;;;;;4954244;29;20238;-75
2022/08/01 05:46:39;;;;;;;1.48;1.20;;;;;;;;;;4954337;29;20642;-74
2022/08/01 05:49:08;;;;;;;1.65;1.35;;;;;;;;;;4954346;29;20700;-74
2022/08/01 05:51:35;;;;;;;1.42;1.10;;;;;;;;;;4954547;29;20237;-74
2022/08/01 05:54:03;;;;;;;1.42;1.20;;;;;;;;;;4954876;29;20255;-74
2022/08/01 05:56:30;;;;;;;1.33;1.10;;;;;;;;;;4954615;29;20223;-74
2022/08/01 05:58:57;;;;;;;1.40;1.10;;;;;;;;;;4953469;29;20258;-74
2022/08/01 06:01:24;;;;;;;1.95;0.93;;;;;;;;;;4938019;29;20326;-74
2022/08/01 06:03:52;;;;;;;1.67;1.08;;;;;;;;;;4935064;29;20267;-74
2022/08/01 06:06:21;;;;;;;1.20;1.08;;;;;;;;;;4934980;29;20263;-74
2022/08/01 06:08:48;;;;;;;1.42;1.23;;;;;;;;;;4934925;29;20208;-74
2022/08/01 06:11:15;;;;;;;1.95;1.08;;;;;;;;;;4934731;29;20243;-74
2022/08/01 06:13:43;;;;;;;2.22;1.33;;;;;;;;;;4935014;29;20207;-74
2022/08/01 06:16:10;;;;;;;2.13;1.20;;;;;;;;;;4935144;29;20586;-74
2022/08/01 06:18:37;;;;;;;1.40;1.30;;;;;;;;;;4935320;29;20638;-74
2022/08/01 06:21:04;;;;;;;1.83;1.27;;;;;;;;;;4935354;29;20235;-74
2022/08/01 06:23:33;;;;;;;1.45;1.33;;;;;;;;;;4935060;29;20242;-74
2022/08/01 06:26:00;;;;;;;4.68;1.60;;;;;;;;;;4935116;29;20247;-74
2022/08/01 06:28:27;;;;;;;1.50;1.38;;;;;;;;;;4934719;29;20204;-74
2022/08/01 06:30:54;;;;;;;2.42;1.40;;;;;;;;;;4935153;29;20292;-74
2022/08/01 06:33:22;;;;;;;1.38;0.93;;;;;;;;;;4934840;29;20290;-74
2022/08/01 06:35:49;;;;;;;2.28;1.00;;;;;;;;;;4934810;29;20294;-74
2022/08/01 06:38:16;;;;;;;2.17;1.30;;;;;;;;;;4935052;29;20322;-74
2022/08/01 06:40:45;;;;;;;1.63;0.98;;;;;;;;;;4934951;29;20272;-74
2022/08/01 06:43:12;;;;;;;1.42;1.10;;;;;;;;;;4934360;29;20243;-74
2022/08/01 06:45:39;;;;;;;1.48;1.00;;;;;;;;;;4935037;29;20207;-74
2022/08/01 06:48:07;;;;;;;2.25;1.20;;;;;;;;;;4934981;29;20231;-74
2022/08/01 06:50:35;;;;;;;1.70;0.85;;;;;;;;;;4934985;29;20755;-74
2022/08/01 06:53:02;;;;;;;1.17;0.75;;;;;;;;;;4934660;29;20215;-74
2022/08/01 06:55:30;;;;;;;1.40;1.00;;;;;;;;;;4935098;29;20235;-74
2022/08/01 06:57:58;;;;;;;1.25;1.00;;;;;;;;;;4934339;29;20228;-74
2022/08/01 07:00:26;;;;;;;0.70;0.63;;;;;;;;;;4943009;29;20266;-74
2022/08/01 07:02:54;;;;;;;2.00;1.10;;;;;;;;;;4953846;29;20207;-74
2022/08/01 07:05:22;;;;;;;1.20;0.95;;;;;;;;;;4953820;29;20328;-74
2022/08/01 07:07:49;;;;;;;1.10;0.70;;;;;;;;;;4953852;29;20294;-74
2022/08/01 07:10:16;;;;;;;1.60;1.10;;;;;;;;;;4954885;28;20313;-74
2022/08/01 07:12:43;;;;;;;0.80;0.80;;;;;;;;;;4956966;29;20293;-74
2022/08/01 07:15:12;;;;;;;1.40;0.95;;;;;;;;;;4957003;29;20246;-75
2022/08/01 07:17:40;;;;;;;1.90;0.80;;;;;;;;;;4957451;29;20270;-75
2022/08/01 07:20:08;;;;;;;1.73;1.00;;;;;;;;;;4956987;29;20753;-74
2022/08/01 07:22:36;;;;;;;1.27;0.90;;;;;;;;;;4957480;29;20235;-74
2022/08/01 07:25:03;;;;;;;1.65;0.82;;;;;;;;;;4957031;29;20219;-74
2022/08/01 07:27:30;;;;;;;1.30;0.90;;;;;;;;;;4956845;29;20227;-75
2022/08/01 07:29:57;;;;;;;2.10;1.10;;;;;;;;;;4956994;29;20238;-74
2022/08/01 07:32:26;;;;;;;0.80;0.80;;;;;;;;;;4957130;29;20251;-75
2022/08/01 07:34:53;;;;;;;1.48;0.90;;;;;;;;;;4957017;29;20659;-74
2022/08/01 07:37:20;;;;;;;1.42;1.00;;;;;;;;;;4956856;29;20318;-74
2022/08/01 07:39:47;;;;;;;2.45;0.90;;;;;;;;;;4957191;29;20216;-74
2022/08/01 07:42:15;;;;;;;1.38;0.90;;;;;;;;;;4956321;29;20238;-75
2022/08/01 07:44:42;;;;;;;1.13;0.80;;;;;;;;;;4956890;29;20230;-74
2022/08/01 07:47:09;;;;;;;1.83;0.80;;;;;;;;;;4957147;29;20238;-75
2022/08/01 07:49:41;;;;;;;2.47;0.90;;;;;;;;;;4956802;29;20294;-75
2022/08/01 07:52:08;;;;;;;1.15;0.80;;;;;;;;;;4956665;29;20214;-74
2022/08/01 07:54:36;;;;;;;1.17;0.98;;;;;;;;;;4956625;29;20225;-74
2022/08/01 07:57:03;;;;;;;1.15;0.80;;;;;;;;;;4956026;29;20314;-75
2022/08/01 07:59:31;;;;;;;2.65;0.90;;;;;;;;;;4961196;28;20218;-75
2022/08/01 08:01:58;;;;;;;1.23;0.63;;;;;;;;;;4956647;29;20299;-75
2022/08/01 08:04:25;;;;;;;1.33;0.73;;;;;;;;;;4956536;29;20679;-75
2022/08/01 08:06:54;;;;;;;0.93;0.73;;;;;;;;;;4956435;29;20246;-74
2022/08/01 08:09:21;;;;;;;1.05;0.70;;;;;;;;;;4956321;29;20203;-75
2022/08/01 08:11:48;;;;;;;1.10;0.73;;;;;;;;;;4956565;29;20239;-74
2022/08/01 08:14:16;;;;;;;0.82;0.70;;;;;;;;;;4956279;29;20293;-74
2022/08/01 08:16:43;;;;;;;0.93;0.70;;;;;;;;;;4956587;29;20242;-74
2022/08/01 08:19:10;;;;;;;1.08;0.70;;;;;;;;;;4956461;29;20254;-75
2022/08/01 08:21:38;;;;;;;2.28;0.70;;;;;;;;;;4956094;28;20294;-75
2022/08/01 08:24:23;;;;;;;1.52;0.82;;;;;;;;;;4956252;29;20258;-75
2022/08/01 08:26:51;;;;;;;1.50;0.90;;;;;;;;;;4956155;29;20214;-74
2022/08/01 08:29:18;;;;;;;2.33;0.90;;;;;;;;;;4955866;29;20622;-74
2022/08/01 08:31:45;;;;;;;1.50;0.95;;;;;;;;;;4956028;29;20241;-74
2022/08/01 08:34:13;;;;;;;1.50;1.00;;;;;;;;;;4956145;29;20286;-74
2022/08/01 08:36:40;;;;;;;1.92;0.90;;;;;;;;;;4956006;29;20640;-75
2022/08/01 08:39:09;;;;;;;1.10;0.65;;;;;;;;;;4955578;29;20230;-74
2022/08/01 08:41:36;;;;;;;1.23;0.70;;;;;;;;;;4955712;29;20250;-74
2022/08/01 08:44:04;;;;;;;1.88;0.90;;;;;;;;;;4955797;29;20294;-75
2022/08/01 08:46:33;;;;;;;1.30;0.70;;;;;;;;;;4955550;29;20730;-74
2022/08/01 08:49:00;;;;;;;1.27;0.90;;;;;;;;;;4955717;29;20856;-74
2022/08/01 08:51:28;;;;;;;2.10;1.00;;;;;;;;;;4955643;29;20238;-75
2022/08/01 08:53:56;;;;;;;1.50;0.70;;;;;;;;;;4955261;29;20615;-74
2022/08/01 08:56:26;;;;;;;0.85;0.73;;;;;;;;;;4955809;29;20289;-74
2022/08/01 08:58:53;;;;;;;0.70;0.63;;;;;;;;;;4953434;29;20241;-75
2022/08/01 09:01:21;;;;;;;1.33;0.77;;;;;;;;;;4951771;29;20247;-75
2022/08/01 09:03:48;;;;;;;1.02;0.57;;;;;;;;;;4955487;29;20286;-74
2022/08/01 09:06:16;;;;;;;1.08;0.70;;;;;;;;;;4955307;29;20246;-75
2022/08/01 09:08:43;;;;;;;0.77;0.60;;;;;;;;;;4955132;29;20671;-75
2022/08/01 09:11:11;;;;;;;0.90;0.57;;;;;;;;;;4955334;29;20692;-75
2022/08/01 09:13:39;;;;;;;0.80;0.60;;;;;;;;;;4955407;29;20230;-75
2022/08/01 09:16:07;;;;;;;0.82;0.70;;;;;;;;;;4955498;29;20289;-75
2022/08/01 09:18:35;;;;;;;0.95;0.70;;;;;;;;;;4955335;29;20227;-75
2022/08/01 09:21:17;;;;;;;0.77;0.70;;;;;;;;;;4955291;29;20246;-75
2022/08/01 09:23:46;;;;;;;1.02;0.70;;;;;;;;;;4953379;29;20238;-75
2022/08/01 09:26:13;;;;;;;0.70;0.60;;;;;;;;;;4954951;29;20292;-75
2022/08/01 09:28:43;;;;;;;0.60;0.52;;;;;;;;;;4955009;29;20235;-74
2022/08/01 09:31:11;;;;;;;0.80;0.65;;;;;;;;;;4955229;29;20207;-74
2022/08/01 09:33:52;;;;;;;1.08;0.60;;;;;;;;;;4954435;28;20218;-73
2022/08/01 09:36:19;;;;;;;0.82;0.60;;;;;;;;;;4954823;29;20240;-75
2022/08/01 09:38:46;;;;;;;0.88;0.65;;;;;;;;;;4954652;29;20318;-75
2022/08/01 09:41:13;;;;;;;0.75;0.65;;;;;;;;;;4954714;29;20206;-75
2022/08/01 09:43:41;;;;;;;1.42;0.55;;;;;;;;;;4954696;29;20294;-75
2022/08/01 09:46:12;;;;;;;1.00;0.90;;;;;;;;;;4954917;29;20234;-74
2022/08/01 09:48:40;;;;;;;1.40;0.70;;;;;;;;;;4954944;29;20654;-75
2022/08/01 09:51:07;;;;;;;1.60;1.10;;;;;;;;;;4954569;29;20210;-74
2022/08/01 09:53:42;;;;;;;1.20;0.88;;;;;;;;;;4954755;29;20238;-74
2022/08/01 09:56:11;;;;;;;1.25;0.90;;;;;;;;;;4954445;29;20725;-75
2022/08/01 09:58:50;;;;;;;1.25;1.00;;;;;;;;;;4954447;29;20575;-75
2022/08/01 10:01:21;;;;;;;1.40;1.00;;;;;;;;;;4954520;29;20262;-74
2022/08/01 10:03:48;;;;;;;1.60;0.82;;;;;;;;;;4954674;29;20251;-75
2022/08/01 10:06:22;;;;;;;1.25;1.10;;;;;;;;;;4954141;29;20323;-74
2022/08/01 10:08:50;;;;;;;1.25;1.10;;;;;;;;;;4954452;29;20841;-75
2022/08/01 10:11:18;;;;;;;1.50;1.00;;;;;;;;;;4954257;29;20245;-73
2022/08/01 10:13:45;;;;;;;5.60;1.05;;;;;;;;;;4954637;29;20307;-75
2022/08/01 10:16:14;;;;;;;1.55;1.10;;;;;;;;;;4954458;29;20654;-75
2022/08/01 10:18:43;;;;;;;1.98;1.05;;;;;;;;;;4937510;29;20736;-75
2022/08/01 10:21:11;;;;;;;1.35;1.10;;;;;;;;;;4954024;29;20295;-75
2022/08/01 10:23:39;;;;;;;1.02;0.90;;;;;;;;;;4954618;29;20293;-74
2022/08/01 10:26:07;;;;;;;1.35;1.10;;;;;;;;;;4954520;29;20235;-75
2022/08/01 10:28:36;;;;;;;1.50;1.15;;;;;;;;;;4954548;29;20212;-74
2022/08/01 10:31:04;;;;;;;1.73;1.17;;;;;;;;;;4954376;29;20624;-75
2022/08/01 10:33:31;;;;;;;1.20;1.00;;;;;;;;;;4954513;29;20319;-75
2022/08/01 10:36:00;;;;;;;1.70;1.40;;;;;;;;;;4954331;29;20250;-75
2022/08/01 10:38:29;;;;;;;1.45;1.30;;;;;;;;;;4954235;29;20263;-75
2022/08/01 10:40:57;;;;;;;1.42;1.33;;;;;;;;;;4954166;29;21023;-74
2022/08/01 10:43:24;;;;;;;1.77;1.10;;;;;;;;;;4954076;29;20243;-74
2022/08/01 10:45:52;;;;;;;1.55;1.40;;;;;;;;;;4958177;28;20207;-74
2022/08/01 10:48:22;;;;;;;1.33;1.23;;;;;;;;;;4957816;29;20282;-75
2022/08/01 10:50:50;;;;;;;1.40;1.30;;;;;;;;;;4957507;29;20242;-75
2022/08/01 10:53:20;;;;;;;1.67;1.42;;;;;;;;;;4957881;29;20290;-75
2022/08/01 10:55:49;;;;;;;1.80;1.70;;;;;;;;;;4957866;29;20207;-75
2022/08/01 10:58:21;;;;;;;8.45;1.95;;;;;;;;;;4957263;29;20331;-75
2022/08/01 11:00:48;;;;;;;1.88;1.35;;;;;;;;;;4957533;29;20239;-75
2022/08/01 11:03:15;;;;;;;2.00;1.30;;;;;;;;;;4957472;29;20230;-75
2022/08/01 11:05:43;;;;;;;1.60;1.50;;;;;;;;;;4957501;29;20294;-75
2022/08/01 11:08:11;;;;;;;2.08;1.48;;;;;;;;;;4957542;29;20227;-75
2022/08/01 11:10:42;;;;;;;3.15;1.58;;;;;;;;;;4957680;29;20329;-74
2022/08/01 11:13:11;;;;;;;2.30;1.67;;;;;;;;;;4957775;29;20262;-74
2022/08/01 11:15:38;;;;;;;2.00;1.70;;;;;;;;;;4957247;29;20298;-75
2022/08/01 11:18:25;;;;;;;2.97;1.75;;;;;;;;;;4957067;29;20318;-74
2022/08/01 11:20:57;;;;;;;2.25;1.75;;;;;;;;;;4957165;29;20235;-75
2022/08/01 11:23:25;;;;;;;1.67;1.38;;;;;;;;;;4957118;29;20207;-75
2022/08/01 11:26:13;;;;;;;1.92;1.73;;;;;;;;;;4957212;29;20207;-75
2022/08/01 11:28:40;;;;;;;2.33;1.55;;;;;;;;;;4956918;29;20613;-75
2022/08/01 11:31:26;;;;;;;1.63;1.52;;;;;;;;;;4957555;29;20209;-74
2022/08/01 11:33:53;;;;;;;1.95;1.67;;;;;;;;;;4956959;29;20247;-75
2022/08/01 11:36:21;;;;;;;2.20;1.65;;;;;;;;;;4957252;29;20239;-75
2022/08/01 11:38:49;;;;;;;1.85;1.70;;;;;;;;;;4956770;29;20739;-75
2022/08/01 11:41:19;;;;;;;1.60;1.50;;;;;;;;;;4957201;29;20234;-75
2022/08/01 11:43:56;;;;;;;1.73;1.55;;;;;;;;;;4957326;29;20203;-75
2022/08/01 11:46:39;;;;;;;1.60;1.50;;;;;;;;;;4956938;29;20245;-75
2022/08/01 11:49:26;;;;;;;1.92;1.50;;;;;;;;;;4956361;29;20199;-74
2022/08/01 11:51:58;;;;;;;2.20;1.40;;;;;;;;;;4956705;29;20679;-75
2022/08/01 11:54:28;;;;;;;1.67;1.30;;;;;;;;;;4957059;29;20203;-75
2022/08/01 11:56:58;;;;;;;1.70;1.60;;;;;;;;;;4956510;28;20293;-75
2022/08/01 11:59:25;;;;;;;1.45;1.23;;;;;;;;;;4956290;29;20298;-75
2022/08/01 12:01:52;;;;;;;1.63;1.50;;;;;;;;;;4956152;29;20625;-74
2022/08/01 12:04:20;;;;;;;2.65;1.55;;;;;;;;;;4956669;29;20213;-75
2022/08/01 12:06:47;;;;;;;2.35;1.48;;;;;;;;;;4956405;29;20253;-75
2022/08/01 12:09:21;;;;;;;1.67;1.50;;;;;;;;;;4956642;29;20578;-75
2022/08/01 12:11:49;;;;;;;1.45;1.35;;;;;;;;;;4956065;29;20667;-75
2022/08/01 12:14:26;;;;;;;1.73;1.48;;;;;;;;;;4956187;29;20206;-75
2022/08/01 12:16:55;;;;;;;2.13;1.40;;;;;;;;;;4955779;29;20245;-75
2022/08/01 12:19:23;;;;;;;1.90;1.40;;;;;;;;;;4956396;29;20273;-75
2022/08/01 12:22:09;;;;;;;2.63;1.77;;;;;;;;;;4956193;29;20234;-75
2022/08/01 12:24:37;;;;;;;2.60;1.90;;;;;;;;;;4956169;29;20294;-75
2022/08/01 12:27:05;;;;;;;1.55;1.42;;;;;;;;;;4956229;29;20339;-75
2022/08/01 12:29:34;;;;;;;2.03;1.50;;;;;;;;;;4956309;29;20254;-75
2022/08/01 12:32:01;;;;;;;1.77;1.50;;;;;;;;;;4955701;29;20671;-75
2022/08/01 12:34:28;;;;;;;1.30;1.20;;;;;;;;;;4955881;29;20207;-75
2022/08/01 12:36:56;;;;;;;2.60;1.67;;;;;;;;;;4955760;29;20207;-75
2022/08/01 12:39:24;;;;;;;2.63;1.73;;;;;;;;;;4955819;29;20687;-74
2022/08/01 12:41:51;;;;;;;2.47;1.70;;;;;;;;;;4955841;29;20705;-75
2022/08/01 12:44:18;;;;;;;1.63;1.50;;;;;;;;;;4955904;29;20245;-75
2022/08/01 12:46:47;;;;;;;1.65;1.55;;;;;;;;;;4955470;29;20270;-74
2022/08/01 12:49:14;;;;;;;2.40;1.60;;;;;;;;;;4955602;29;20239;-74
2022/08/01 12:51:42;;;;;;;2.75;1.90;;;;;;;;;;4956038;29;20206;-74
2022/08/01 12:54:09;;;;;;;1.70;1.60;;;;;;;;;;4955746;29;20203;-74
2022/08/01 12:56:37;;;;;;;2.58;1.80;;;;;;;;;;4955554;29;20218;-74
2022/08/01 12:59:19;;;;;;;2.58;1.98;;;;;;;;;;4955219;29;20711;-74
2022/08/01 13:01:48;;;;;;;1.50;1.40;;;;;;;;;;4955768;29;20802;-75
2022/08/01 13:04:15;;;;;;;1.60;1.50;;;;;;;;;;4955372;29;20943;-74
2022/08/01 13:06:42;;;;;;;1.98;1.52;;;;;;;;;;4955335;28;20616;-74
2022/08/01 13:09:11;;;;;;;1.90;1.70;;;;;;;;;;4954752;29;20285;-75
2022/08/01 13:11:38;;;;;;;2.65;1.58;;;;;;;;;;4955508;29;20199;-75
2022/08/01 13:14:05;;;;;;;4.95;1.63;;;;;;;;;;4954964;28;20242;-74
2022/08/01 13:16:32;;;;;;;2.45;1.65;;;;;;;;;;4955156;28;20246;-74
2022/08/01 13:19:01;;;;;;;2.08;1.60;;;;;;;;;;4954955;28;20749;-74
2022/08/01 13:21:29;;;;;;;1.67;1.52;;;;;;;;;;4955243;28;20620;-74
2022/08/01 13:24:02;;;;;;;1.90;1.80;;;;;;;;;;4955165;28;20230;-74
2022/08/01 13:26:42;;;;;;;2.40;1.75;;;;;;;;;;4955232;28;20290;-74
2022/08/01 13:29:10;;;;;;;1.70;1.60;;;;;;;;;;4954593;29;20298;-75
2022/08/01 13:31:38;;;;;;;3.08;1.85;;;;;;;;;;4955057;29;20239;-74
2022/08/01 13:34:07;;;;;;;2.20;2.00;;;;;;;;;;4954786;29;20290;-74
2022/08/01 13:36:34;;;;;;;2.22;2.08;;;;;;;;;;4955043;29;20203;-75
2022/08/01 13:41:47;;;;;;;3.25;2.00;;;;;;;;;;4954919;28;20203;-74
2022/08/01 13:44:14;;;;;;;2.30;2.00;;;;;;;;;;4954535;29;20610;-74
2022/08/01 13:46:42;;;;;;;2.90;1.95;;;;;;;;;;4954708;28;20209;-74
2022/08/01 13:49:11;;;;;;;2.40;2.00;;;;;;;;;;4955096;29;20566;-74
2022/08/01 13:51:39;;;;;;;2.00;1.70;;;;;;;;;;4954758;28;20235;-74
2022/08/01 13:54:07;;;;;;;2.15;1.77;;;;;;;;;;4954674;29;20239;-75
2022/08/01 13:56:35;;;;;;;2.03;1.83;;;;;;;;;;4954997;29;20203;-75
2022/08/01 13:59:02;;;;;;;2.47;1.60;;;;;;;;;;4951544;29;20299;-74
2022/08/01 14:01:29;;;;;;;2.22;1.77;;;;;;;;;;4935165;29;20243;-74
2022/08/01 14:03:56;;;;;;;2.65;1.73;;;;;;;;;;4935391;29;20627;-74
2022/08/01 14:06:25;;;;;;;3.22;1.75;;;;;;;;;;4935555;29;20234;-74
2022/08/01 14:08:52;;;;;;;2.95;1.83;;;;;;;;;;4935758;29;20294;-74
2022/08/01 14:11:19;;;;;;;2.63;1.60;;;;;;;;;;4935143;29;20211;-75
2022/08/01 14:13:47;;;;;;;3.70;1.95;;;;;;;;;;4935027;29;20232;-74
2022/08/01 14:16:14;;;;;;;3.78;1.77;;;;;;;;;;4935009;29;20295;-75
2022/08/01 14:18:41;;;;;;;2.38;1.83;;;;;;;;;;4935582;29;20710;-75
2022/08/01 14:21:08;;;;;;;2.50;1.90;;;;;;;;;;4939067;29;20208;-74
2022/08/01 14:23:37;;;;;;;3.42;2.03;;;;;;;;;;4939139;29;20212;-74
2022/08/01 14:26:04;;;;;;;2.40;2.10;;;;;;;;;;4939468;29;20212;-74
2022/08/01 14:28:33;;;;;;;3.10;1.95;;;;;;;;;;4938786;29;20235;-74
2022/08/01 14:31:00;;;;;;;2.42;1.70;;;;;;;;;;4939277;29;20204;-74
2022/08/01 14:33:28;;;;;;;2.30;2.10;;;;;;;;;;4939164;29;20235;-74
2022/08/01 14:35:55;;;;;;;2.10;1.90;;;;;;;;;;4939024;29;20203;-74
2022/08/01 14:38:22;;;;;;;3.70;2.00;;;;;;;;;;4939288;29;20347;-74
2022/08/01 14:40:54;;;;;;;3.78;1.90;;;;;;;;;;4938772;29;20263;-75
2022/08/01 14:43:21;;;;;;;3.17;1.63;;;;;;;;;;4938886;29;20684;-74
2022/08/01 14:45:49;;;;;;;1.85;1.67;;;;;;;;;;4938649;29;20208;-74
2022/08/01 14:48:16;;;;;;;2.53;1.48;;;;;;;;;;4938345;29;20700;-74
2022/08/01 14:50:44;;;;;;;3.50;1.77;;;;;;;;;;4938959;29;20291;-75
2022/08/01 14:53:11;;;;;;;2.60;1.75;;;;;;;;;;4938717;29;20573;-75
2022/08/01 14:55:38;;;;;;;3.20;1.63;;;;;;;;;;4938400;29;20242;-74